Impacts METAR Board
IDs:

KGTU - Georgetown Muni, TX, US

Updated at: 2300 UTC 18 Oct 2019
Potential Impact None Slight Moderate High
Time 18/11Z 18/12Z 18/13Z 18/14Z 18/15Z 18/16Z 18/17Z 18/18Z 18/19Z 18/20Z 18/21Z 18/22Z 18/23Z
Temp47 47 46 55 59 64 69 73 77 78 80 81 80
Dewpt43 44 43 48 49 49 47 43 46 47 50 52 53
Altim29.92 29.92 29.92 29.92 29.93 29.92 29.89 29.86 29.82 29.79 29.76 29.75 29.74
VIS10 10 10 10 10 10 10 10 10 10 10 10 10
CIG-- -- -- -- -- -- -- -- -- -- -- -- --
CoverCLRCLRCLRCLRCLRCLRCLRCLRCLRCLRCLRCLRCLR
FltCatVFRVFRVFRVFRVFRVFRVFRVFRVFRVFRVFRVFRVFR
WX--------------------------
WDir000016001000900130160150
WSpd0 0 0 0 3 3 6 6 5 4 6 8 8
WGst-- -- -- -- -- -- -- -- -- -- -- 14 --
Raw hourly METARs
KGTU 181056Z AUTO 00000KT 10SM CLR 08/06 A2992 RMK AO2 SLP131 T00830061
KGTU 181156Z 00000KT 10SM CLR 08/07 A2992 RMK AO2 SLP130 T00830067 10122 20072 56003
KGTU 181256Z 00000KT 10SM CLR 08/06 A2992 RMK AO2 SLP132 T00780061
KGTU 181356Z 00000KT 10SM CLR 13/09 A2992 RMK AO2 SLP129 T01280089
KGTU 181456Z 16003KT 10SM CLR 15/09 A2993 RMK AO2 SLP133 T01500094 53003
KGTU 181556Z VRB03KT 10SM CLR 18/09 A2992 RMK AO2 SLP130 T01780094
KGTU 181656Z 10006KT 10SM CLR 21/08 A2989 RMK AO2 SLP120 T02060083
KGTU 181756Z VRB06KT 10SM CLR 23/06 A2986 RMK AO2 SLP108 T02280061 10228 20078 58023
KGTU 181856Z 09005KT 10SM CLR 25/08 A2982 RMK AO2 SLP096 T02500078
KGTU 181956Z VRB04KT 10SM CLR 26/08 A2979 RMK AO2 SLP084 T02560083
KGTU 182056Z 13006KT 10SM CLR 27/10 A2976 RMK AO2 SLP074 T02670100 56033
KGTU 182156Z 16008G14KT 10SM CLR 27/11 A2975 RMK AO2 SLP071 T02720111
KGTU 182256Z 15008KT 10SM CLR 27/12 A2974 RMK AO2 SLP067 T02670117